sensor_id;sensor_type;location;lat;lon;timestamp;pressure;altitude;pressure_sealevel;temperature;humidity
29909;BME280;36247;51.952;6.146;2023-02-23T00:00:25;101127.75;;;7.74;100.00
29909;BME280;36247;51.952;6.146;2023-02-23T00:02:55;101125.94;;;7.72;100.00
29909;BME280;36247;51.952;6.146;2023-02-23T00:05:23;101124.19;;;7.72;100.00
29909;BME280;36247;51.952;6.146;2023-02-23T00:07:49;101119.59;;;7.65;100.00
29909;BME280;36247;51.952;6.146;2023-02-23T00:10:16;101124.03;;;7.66;100.00
29909;BME280;36247;51.952;6.146;2023-02-23T00:12:43;101126.53;;;7.62;100.00
29909;BME280;36247;51.952;6.146;2023-02-23T00:15:10;101124.66;;;7.59;100.00
29909;BME280;36247;51.952;6.146;2023-02-23T00:17:35;101128.19;;;7.59;100.00
29909;BME280;36247;51.952;6.146;2023-02-23T00:20:06;101118.44;;;7.55;100.00
29909;BME280;36247;51.952;6.146;2023-02-23T00:22:33;101129.81;;;7.54;100.00
29909;BME280;36247;51.952;6.146;2023-02-23T00:24:59;101137.75;;;7.56;100.00
29909;BME280;36247;51.952;6.146;2023-02-23T00:27:24;101120.28;;;7.59;100.00
29909;BME280;36247;51.952;6.146;2023-02-23T00:29:50;101125.38;;;7.53;100.00
29909;BME280;36247;51.952;6.146;2023-02-23T00:32:16;101135.81;;;7.50;100.00
29909;BME280;36247;51.952;6.146;2023-02-23T00:34:45;101122.66;;;7.50;100.00
29909;BME280;36247;51.952;6.146;2023-02-23T00:37:14;101123.56;;;7.52;100.00
29909;BME280;36247;51.952;6.146;2023-02-23T00:39:40;101127.00;;;7.48;100.00
29909;BME280;36247;51.952;6.146;2023-02-23T00:42:05;101121.66;;;7.47;100.00
29909;BME280;36247;51.952;6.146;2023-02-23T00:44:32;101122.69;;;7.52;100.00
29909;BME280;36247;51.952;6.146;2023-02-23T00:46:59;101124.50;;;7.53;100.00
29909;BME280;36247;51.952;6.146;2023-02-23T00:49:25;101118.31;;;7.52;100.00
29909;BME280;36247;51.952;6.146;2023-02-23T00:51:51;101131.38;;;7.49;100.00
29909;BME280;36247;51.952;6.146;2023-02-23T00:54:18;101127.13;;;7.53;100.00
29909;BME280;36247;51.952;6.146;2023-02-23T00:56:44;101122.69;;;7.52;100.00
29909;BME280;36247;51.952;6.146;2023-02-23T00:59:10;101126.13;;;7.49;100.00
29909;BME280;36247;51.952;6.146;2023-02-23T01:01:37;101124.44;;;7.51;100.00
29909;BME280;36247;51.952;6.146;2023-02-23T01:04:04;101120.94;;;7.52;100.00
29909;BME280;36247;51.952;6.146;2023-02-23T01:06:29;101127.13;;;7.53;100.00
29909;BME280;36247;51.952;6.146;2023-02-23T01:08:56;101130.66;;;7.53;100.00
29909;BME280;36247;51.952;6.146;2023-02-23T01:11:24;101128.84;;;7.52;100.00
29909;BME280;36247;51.952;6.146;2023-02-23T01:13:53;101131.25;;;7.45;100.00
29909;BME280;36247;51.952;6.146;2023-02-23T01:16:21;101135.63;;;7.44;100.00
29909;BME280;36247;51.952;6.146;2023-02-23T01:18:47;101134.72;;;7.42;100.00
29909;BME280;36247;51.952;6.146;2023-02-23T01:21:19;101128.47;;;7.40;100.00
29909;BME280;36247;51.952;6.146;2023-02-23T01:23:45;101131.91;;;7.37;100.00
29909;BME280;36247;51.952;6.146;2023-02-23T01:26:22;101136.53;;;7.45;100.00
29909;BME280;36247;51.952;6.146;2023-02-23T01:28:53;101131.00;;;7.37;100.00
29909;BME280;36247;51.952;6.146;2023-02-23T01:31:20;101136.38;;;7.40;100.00
29909;BME280;36247;51.952;6.146;2023-02-23T01:33:46;101130.91;;;7.34;100.00
29909;BME280;36247;51.952;6.146;2023-02-23T01:36:12;101137.94;;;7.33;100.00
29909;BME280;36247;51.952;6.146;2023-02-23T01:38:39;101137.72;;;7.26;100.00
29909;BME280;36247;51.952;6.146;2023-02-23T01:41:05;101135.22;;;7.30;100.00
29909;BME280;36247;51.952;6.146;2023-02-23T01:43:33;101139.72;;;7.34;100.00
29909;BME280;36247;51.952;6.146;2023-02-23T01:45:59;101138.94;;;7.37;100.00
29909;BME280;36247;51.952;6.146;2023-02-23T01:48:31;101139.97;;;7.42;100.00
29909;BME280;36247;51.952;6.146;2023-02-23T01:51:04;101146.28;;;7.47;100.00
29909;BME280;36247;51.952;6.146;2023-02-23T01:53:33;101141.16;;;7.52;100.00
29909;BME280;36247;51.952;6.146;2023-02-23T01:56:14;101137.56;;;7.50;100.00
29909;BME280;36247;51.952;6.146;2023-02-23T01:58:45;101141.78;;;7.45;100.00
29909;BME280;36247;51.952;6.146;2023-02-23T02:01:12;101137.31;;;7.40;100.00
29909;BME280;36247;51.952;6.146;2023-02-23T02:03:45;101138.63;;;7.28;100.00
29909;BME280;36247;51.952;6.146;2023-02-23T02:06:15;101139.09;;;7.14;100.00
29909;BME280;36247;51.952;6.146;2023-02-23T02:08:47;101138.34;;;7.18;100.00
29909;BME280;36247;51.952;6.146;2023-02-23T02:11:17;101135.84;;;7.23;100.00
29909;BME280;36247;51.952;6.146;2023-02-23T02:16:51;101133.59;;;7.35;100.00
29909;BME280;36247;51.952;6.146;2023-02-23T02:22:24;101126.56;;;7.36;100.00
29909;BME280;36247;51.952;6.146;2023-02-23T02:28:08;101129.25;;;7.37;100.00
29909;BME280;36247;51.952;6.146;2023-02-23T02:31:13;101132.88;;;7.39;100.00
29909;BME280;36247;51.952;6.146;2023-02-23T02:34:04;101136.47;;;7.43;100.00
29909;BME280;36247;51.952;6.146;2023-02-23T02:42:30;101133.09;;;7.47;100.00
29909;BME280;36247;51.952;6.146;2023-02-23T02:45:14;101143.00;;;7.54;100.00
29909;BME280;36247;51.952;6.146;2023-02-23T02:47:53;101128.97;;;7.55;100.00
29909;BME280;36247;51.952;6.146;2023-02-23T02:50:40;101132.44;;;7.54;100.00
29909;BME280;36247;51.952;6.146;2023-02-23T02:53:14;101139.97;;;7.42;100.00
29909;BME280;36247;51.952;6.146;2023-02-23T02:55:45;101131.28;;;7.46;100.00
29909;BME280;36247;51.952;6.146;2023-02-23T02:58:13;101135.53;;;7.41;100.00
29909;BME280;36247;51.952;6.146;2023-02-23T03:00:47;101127.63;;;7.41;100.00
29909;BME280;36247;51.952;6.146;2023-02-23T03:03:42;101135.53;;;7.41;100.00
29909;BME280;36247;51.952;6.146;2023-02-23T03:07:17;101131.97;;;7.39;100.00
29909;BME280;36247;51.952;6.146;2023-02-23T03:09:48;101136.63;;;7.48;100.00
29909;BME280;36247;51.952;6.146;2023-02-23T03:13:17;101129.63;;;7.48;100.00
29909;BME280;36247;51.952;6.146;2023-02-23T03:16:15;101136.56;;;7.46;100.00
29909;BME280;36247;51.952;6.146;2023-02-23T03:19:30;101139.13;;;7.43;100.00
29909;BME280;36247;51.952;6.146;2023-02-23T03:25:14;101130.31;;;7.43;100.00
29909;BME280;36247;51.952;6.146;2023-02-23T03:28:25;101141.59;;;7.38;100.00
29909;BME280;36247;51.952;6.146;2023-02-23T03:31:20;101145.81;;;7.32;100.00
29909;BME280;36247;51.952;6.146;2023-02-23T03:34:09;101142.25;;;7.31;100.00
29909;BME280;36247;51.952;6.146;2023-02-23T03:37:08;101138.94;;;7.37;100.00
29909;BME280;36247;51.952;6.146;2023-02-23T03:40:05;101142.28;;;7.33;100.00
29909;BME280;36247;51.952;6.146;2023-02-23T03:42:55;101138.94;;;7.37;100.00
29909;BME280;36247;51.952;6.146;2023-02-23T03:45:42;101146.72;;;7.34;100.00
29909;BME280;36247;51.952;6.146;2023-02-23T03:48:28;101151.22;;;7.36;100.00
29909;BME280;36247;51.952;6.146;2023-02-23T03:51:15;101146.69;;;7.32;100.00
29909;BME280;36247;51.952;6.146;2023-02-23T03:54:18;101149.47;;;7.37;100.00
29909;BME280;36247;51.952;6.146;2023-02-23T03:57:04;101154.75;;;7.37;100.00
29909;BME280;36247;51.952;6.146;2023-02-23T03:59:55;101149.19;;;7.28;100.00
29909;BME280;36247;51.952;6.146;2023-02-23T04:02:42;101153.53;;;7.26;100.00
29909;BME280;36247;51.952;6.146;2023-02-23T04:05:28;101150.66;;;7.19;100.00
29909;BME280;36247;51.952;6.146;2023-02-23T04:08:17;101151.56;;;7.20;100.00
29909;BME280;36247;51.952;6.146;2023-02-23T04:11:12;101153.28;;;7.19;100.00
29909;BME280;36247;51.952;6.146;2023-02-23T04:14:00;101159.44;;;7.18;100.00
29909;BME280;36247;51.952;6.146;2023-02-23T04:16:29;101164.69;;;7.18;100.00
29909;BME280;36247;51.952;6.146;2023-02-23T04:18:56;101168.06;;;7.14;100.00
29909;BME280;36247;51.952;6.146;2023-02-23T04:21:23;101163.63;;;7.13;100.00
29909;BME280;36247;51.952;6.146;2023-02-23T04:23:48;101174.28;;;7.16;100.00
29909;BME280;36247;51.952;6.146;2023-02-23T04:26:14;101179.50;;;7.15;100.00
29909;BME280;36247;51.952;6.146;2023-02-23T04:28:39;101171.38;;;7.09;100.00
29909;BME280;36247;51.952;6.146;2023-02-23T04:31:05;101177.69;;;7.12;100.00
29909;BME280;36247;51.952;6.146;2023-02-23T04:33:30;101176.72;;;7.10;100.00
29909;BME280;36247;51.952;6.146;2023-02-23T04:35:55;101176.72;;;7.10;100.00
29909;BME280;36247;51.952;6.146;2023-02-23T04:38:21;101174.13;;;7.12;100.00
29909;BME280;36247;51.952;6.146;2023-02-23T04:40:47;101185.69;;;7.15;100.00
29909;BME280;36247;51.952;6.146;2023-02-23T04:43:14;101177.81;;;7.17;100.00
29909;BME280;36247;51.952;6.146;2023-02-23T04:45:39;101178.59;;;7.14;100.00
29909;BME280;36247;51.952;6.146;2023-02-23T04:48:06;101184.66;;;7.12;100.00
29909;BME280;36247;51.952;6.146;2023-02-23T04:50:31;101188.94;;;7.08;100.00
29909;BME280;36247;51.952;6.146;2023-02-23T04:52:57;101185.56;;;7.12;100.00
29909;BME280;36247;51.952;6.146;2023-02-23T04:55:24;101181.88;;;7.07;100.00
29909;BME280;36247;51.952;6.146;2023-02-23T04:57:51;101184.66;;;7.12;100.00
29909;BME280;36247;51.952;6.146;2023-02-23T05:00:17;101187.25;;;7.10;100.00
29909;BME280;36247;51.952;6.146;2023-02-23T05:02:44;101188.84;;;7.05;100.00
29909;BME280;36247;51.952;6.146;2023-02-23T05:05:10;101186.22;;;7.05;100.00
29909;BME280;36247;51.952;6.146;2023-02-23T05:07:36;101193.25;;;7.06;100.00
29909;BME280;36247;51.952;6.146;2023-02-23T05:10:04;101193.25;;;7.06;100.00
29909;BME280;36247;51.952;6.146;2023-02-23T05:12:30;101191.47;;;7.05;100.00
29909;BME280;36247;51.952;6.146;2023-02-23T05:14:56;101194.00;;;7.02;100.00
29909;BME280;36247;51.952;6.146;2023-02-23T05:17:22;101200.31;;;7.07;100.00
29909;BME280;36247;51.952;6.146;2023-02-23T05:19:47;101195.00;;;7.05;100.00
29909;BME280;36247;51.952;6.146;2023-02-23T05:22:12;101197.69;;;7.07;100.00
29909;BME280;36247;51.952;6.146;2023-02-23T05:24:39;101199.38;;;7.05;100.00
29909;BME280;36247;51.952;6.146;2023-02-23T05:27:06;101194.00;;;7.02;100.00
29909;BME280;36247;51.952;6.146;2023-02-23T05:29:31;101197.59;;;7.04;100.00
29909;BME280;36247;51.952;6.146;2023-02-23T05:31:57;101194.13;;;7.05;100.00
29909;BME280;36247;51.952;6.146;2023-02-23T05:34:22;101198.41;;;7.03;100.00
29909;BME280;36247;51.952;6.146;2023-02-23T05:36:48;101196.81;;;7.06;100.00
29909;BME280;36247;51.952;6.146;2023-02-23T05:39:13;101207.22;;;7.03;100.00
29909;BME280;36247;51.952;6.146;2023-02-23T05:41:39;101201.06;;;7.03;100.00
29909;BME280;36247;51.952;6.146;2023-02-23T05:44:04;101204.19;;;7.17;100.00
29909;BME280;36247;51.952;6.146;2023-02-23T05:46:30;101203.16;;;7.13;100.00
29909;BME280;36247;51.952;6.146;2023-02-23T05:48:57;101191.47;;;7.05;100.00
29909;BME280;36247;51.952;6.146;2023-02-23T05:51:24;101207.09;;;6.99;100.00
29909;BME280;36247;51.952;6.146;2023-02-23T05:53:51;101209.91;;;7.05;100.00
29909;BME280;36247;51.952;6.146;2023-02-23T05:56:17;101207.97;;;6.99;100.00
29909;BME280;36247;51.952;6.146;2023-02-23T05:58:46;101208.91;;;7.01;100.00
29909;BME280;36247;51.952;6.146;2023-02-23T06:01:12;101210.59;;;6.99;100.00
29909;BME280;36247;51.952;6.146;2023-02-23T06:03:37;101210.69;;;7.02;100.00
29909;BME280;36247;51.952;6.146;2023-02-23T06:06:03;101217.56;;;6.97;100.00
29909;BME280;36247;51.952;6.146;2023-02-23T06:08:29;101211.47;;;7.00;100.00
29909;BME280;36247;51.952;6.146;2023-02-23T06:10:54;101209.72;;;6.99;100.00
29909;BME280;36247;51.952;6.146;2023-02-23T06:13:20;101211.44;;;6.98;100.00
29909;BME280;36247;51.952;6.146;2023-02-23T06:15:45;101211.44;;;6.98;100.00
29909;BME280;36247;51.952;6.146;2023-02-23T06:18:11;101216.69;;;6.98;100.00
29909;BME280;36247;51.952;6.146;2023-02-23T06:20:37;101215.81;;;6.98;100.00
29909;BME280;36247;51.952;6.146;2023-02-23T06:23:03;101223.72;;;6.98;100.00
29909;BME280;36247;51.952;6.146;2023-02-23T06:25:29;101229.88;;;6.98;100.00
29909;BME280;36247;51.952;6.146;2023-02-23T06:27:55;101231.56;;;6.96;100.00
29909;BME280;36247;51.952;6.146;2023-02-23T06:30:21;101229.72;;;6.94;100.00
29909;BME280;36247;51.952;6.146;2023-02-23T06:32:47;101235.03;;;6.95;100.00
29909;BME280;36247;51.952;6.146;2023-02-23T06:35:16;101231.50;;;6.95;100.00
29909;BME280;36247;51.952;6.146;2023-02-23T06:37:42;101239.47;;;6.96;100.00
29909;BME280;36247;51.952;6.146;2023-02-23T06:40:08;101245.56;;;6.95;100.00
29909;BME280;36247;51.952;6.146;2023-02-23T06:42:33;101242.78;;;6.91;100.00
29909;BME280;36247;51.952;6.146;2023-02-23T06:45:01;101240.97;;;6.89;100.00
29909;BME280;36247;51.952;6.146;2023-02-23T06:47:26;101247.16;;;6.90;100.00
29909;BME280;36247;51.952;6.146;2023-02-23T06:49:52;101253.31;;;6.91;100.00
29909;BME280;36247;51.952;6.146;2023-02-23T06:52:17;101260.50;;;6.95;100.00
29909;BME280;36247;51.952;6.146;2023-02-23T06:54:43;101259.56;;;6.93;100.00
29909;BME280;36247;51.952;6.146;2023-02-23T06:57:08;101248.88;;;6.89;100.00
29909;BME280;36247;51.952;6.146;2023-02-23T06:59:35;101259.41;;;6.89;100.00
29909;BME280;36247;51.952;6.146;2023-02-23T07:02:02;101260.38;;;6.92;100.00
29909;BME280;36247;51.952;6.146;2023-02-23T07:04:30;101263.84;;;6.91;100.00
29909;BME280;36247;51.952;6.146;2023-02-23T07:06:56;101262.19;;;6.93;100.00
29909;BME280;36247;51.952;6.146;2023-02-23T07:09:22;101260.34;;;6.90;100.00
29909;BME280;36247;51.952;6.146;2023-02-23T07:11:47;101273.44;;;6.88;100.00
29909;BME280;36247;51.952;6.146;2023-02-23T07:14:13;101265.53;;;6.88;100.00
29909;BME280;36247;51.952;6.146;2023-02-23T07:16:38;101278.59;;;6.85;100.00
29909;BME280;36247;51.952;6.146;2023-02-23T07:19:05;101278.59;;;6.85;100.00
29909;BME280;36247;51.952;6.146;2023-02-23T07:21:31;101287.59;;;6.92;100.00
29909;BME280;36247;51.952;6.146;2023-02-23T07:23:58;101284.16;;;6.93;100.00
29909;BME280;36247;51.952;6.146;2023-02-23T07:26:23;101292.09;;;6.95;100.00
29909;BME280;36247;51.952;6.146;2023-02-23T07:28:49;101294.72;;;6.95;100.00
29909;BME280;36247;51.952;6.146;2023-02-23T07:31:15;101298.16;;;6.92;100.00
29909;BME280;36247;51.952;6.146;2023-02-23T07:33:40;101299.13;;;6.94;100.00
29909;BME280;36247;51.952;6.146;2023-02-23T07:36:06;101295.72;;;6.98;100.00
29909;BME280;36247;51.952;6.146;2023-02-23T07:38:32;101303.69;;;7.00;100.00
29909;BME280;36247;51.952;6.146;2023-02-23T07:40:58;101297.63;;;7.02;100.00
29909;BME280;36247;51.952;6.146;2023-02-23T07:43:23;101304.03;;;7.09;100.00
29909;BME280;36247;51.952;6.146;2023-02-23T07:45:50;101302.03;;;7.02;100.00
29909;BME280;36247;51.952;6.146;2023-02-23T07:48:16;101309.81;;;6.99;100.00
29909;BME280;36247;51.952;6.146;2023-02-23T07:50:42;101315.81;;;6.95;100.00
29909;BME280;36247;51.952;6.146;2023-02-23T07:53:07;101313.38;;;7.01;100.00
29909;BME280;36247;51.952;6.146;2023-02-23T07:55:33;101318.56;;;6.98;100.00
29909;BME280;36247;51.952;6.146;2023-02-23T07:57:58;101315.97;;;6.99;100.00
29909;BME280;36247;51.952;6.146;2023-02-23T08:00:24;101324.03;;;7.04;100.00
29909;BME280;36247;51.952;6.146;2023-02-23T08:02:52;101317.50;;;6.93;100.00
29909;BME280;36247;51.952;6.146;2023-02-23T08:05:18;101328.41;;;7.03;100.00
29909;BME280;36247;51.952;6.146;2023-02-23T08:07:44;101327.41;;;7.00;100.00
29909;BME280;36247;51.952;6.146;2023-02-23T08:10:10;101336.16;;;6.99;100.00
29909;BME280;36247;51.952;6.146;2023-02-23T08:12:36;101330.09;;;7.01;100.00
29909;BME280;36247;51.952;6.146;2023-02-23T08:15:03;101339.72;;;7.01;100.00
29909;BME280;36247;51.952;6.146;2023-02-23T08:17:33;101337.94;;;7.00;100.00
29909;BME280;36247;51.952;6.146;2023-02-23T08:19:59;101337.09;;;7.01;100.00
29909;BME280;36247;51.952;6.146;2023-02-23T08:22:25;101336.47;;;7.08;100.00
29909;BME280;36247;51.952;6.146;2023-02-23T08:24:51;101339.72;;;7.01;100.00
29909;BME280;36247;51.952;6.146;2023-02-23T08:27:17;101336.31;;;7.03;100.00
29909;BME280;36247;51.952;6.146;2023-02-23T08:29:42;101336.38;;;7.05;100.00
29909;BME280;36247;51.952;6.146;2023-02-23T08:32:08;101340.66;;;7.03;100.00
29909;BME280;36247;51.952;6.146;2023-02-23T08:34:38;101338.34;;;7.11;100.00
29909;BME280;36247;51.952;6.146;2023-02-23T08:37:05;101334.84;;;7.12;100.00
29909;BME280;36247;51.952;6.146;2023-02-23T08:39:30;101340.16;;;7.13;100.00
29909;BME280;36247;51.952;6.146;2023-02-23T08:41:56;101336.88;;;7.19;100.00
29909;BME280;36247;51.952;6.146;2023-02-23T08:44:21;101343.13;;;7.22;100.00
29909;BME280;36247;51.952;6.146;2023-02-23T08:46:47;101343.41;;;7.30;100.00
29909;BME280;36247;51.952;6.146;2023-02-23T08:49:12;101351.28;;;7.29;100.00
29909;BME280;36247;51.952;6.146;2023-02-23T08:51:38;101355.25;;;7.17;100.00
29909;BME280;36247;51.952;6.146;2023-02-23T08:54:05;101358.81;;;7.19;100.00
29909;BME280;36247;51.952;6.146;2023-02-23T08:56:37;101354.69;;;7.26;100.00
29909;BME280;36247;51.952;6.146;2023-02-23T08:59:03;101364.56;;;7.32;100.00
29909;BME280;36247;51.952;6.146;2023-02-23T09:01:29;101357.88;;;7.17;100.00
29909;BME280;36247;51.952;6.146;2023-02-23T09:03:54;101365.03;;;7.20;100.00
29909;BME280;36247;51.952;6.146;2023-02-23T09:06:23;101360.69;;;7.22;100.00
29909;BME280;36247;51.952;6.146;2023-02-23T09:08:51;101364.84;;;7.15;100.00
29909;BME280;36247;51.952;6.146;2023-02-23T09:11:16;101365.19;;;7.24;100.00
29909;BME280;36247;51.952;6.146;2023-02-23T09:13:42;101371.22;;;7.22;100.00
29909;BME280;36247;51.952;6.146;2023-02-23T09:16:09;101373.19;;;7.28;100.00
29909;BME280;36247;51.952;6.146;2023-02-23T09:18:34;101376.88;;;7.33;100.00
29909;BME280;36247;51.952;6.146;2023-02-23T09:21:03;101386.59;;;7.34;100.00
29909;BME280;36247;51.952;6.146;2023-02-23T09:23:32;101377.47;;;7.24;100.00
29909;BME280;36247;51.952;6.146;2023-02-23T09:26:02;101376.25;;;7.40;100.00
29909;BME280;36247;51.952;6.146;2023-02-23T09:28:28;101380.66;;;7.39;100.00
29909;BME280;36247;51.952;6.146;2023-02-23T09:30:55;101385.97;;;7.41;100.00
29909;BME280;36247;51.952;6.146;2023-02-23T09:33:20;101377.69;;;7.56;100.00
29909;BME280;36247;51.952;6.146;2023-02-23T09:35:46;101383.75;;;7.53;100.00
29909;BME280;36247;51.952;6.146;2023-02-23T09:38:12;101378.53;;;7.55;100.00
29909;BME280;36247;51.952;6.146;2023-02-23T09:40:49;101378.78;;;7.63;100.00
29909;BME280;36247;51.952;6.146;2023-02-23T09:43:41;101389.84;;;7.76;100.00
29909;BME280;36247;51.952;6.146;2023-02-23T09:46:49;101388.75;;;7.71;100.00
29909;BME280;36247;51.952;6.146;2023-02-23T09:49:21;101391.59;;;7.77;100.00
29909;BME280;36247;51.952;6.146;2023-02-23T09:51:50;101399.63;;;7.81;100.00
29909;BME280;36247;51.952;6.146;2023-02-23T09:54:29;101403.69;;;7.97;100.00
29909;BME280;36247;51.952;6.146;2023-02-23T09:56:59;101400.16;;;7.96;100.00
29909;BME280;36247;51.952;6.146;2023-02-23T09:59:28;101398.84;;;7.83;100.00
29909;BME280;36247;51.952;6.146;2023-02-23T10:12:38;101405.50;;;7.98;100.00
29909;BME280;36247;51.952;6.146;2023-02-23T10:15:17;101411.84;;;8.04;100.00
29909;BME280;36247;51.952;6.146;2023-02-23T10:17:54;101406.47;;;8.01;100.00
29909;BME280;36247;51.952;6.146;2023-02-23T10:23:25;101399.19;;;8.20;100.00
29909;BME280;36247;51.952;6.146;2023-02-23T10:25:53;101402.56;;;8.16;100.00
29909;BME280;36247;51.952;6.146;2023-02-23T10:28:24;101404.38;;;8.17;100.00
29909;BME280;36247;51.952;6.146;2023-02-23T10:30:51;101405.44;;;8.23;100.00
29909;BME280;36247;51.952;6.146;2023-02-23T10:35:47;101404.41;;;8.18;100.00
29909;BME280;36247;51.952;6.146;2023-02-23T10:38:16;101404.00;;;8.33;100.00
29909;BME280;36247;51.952;6.146;2023-02-23T10:40:45;101407.72;;;8.40;100.00
29909;BME280;36247;51.952;6.146;2023-02-23T10:43:12;101404.22;;;8.39;100.00
29909;BME280;36247;51.952;6.146;2023-02-23T10:45:44;101404.38;;;8.44;100.00
29909;BME280;36247;51.952;6.146;2023-02-23T10:48:16;101410.63;;;8.47;100.00
29909;BME280;36247;51.952;6.146;2023-02-23T10:50:43;101412.97;;;8.38;100.00
29909;BME280;36247;51.952;6.146;2023-02-23T10:53:24;101410.38;;;8.40;100.00
29909;BME280;36247;51.952;6.146;2023-02-23T10:58:28;101414.63;;;8.35;100.00
29909;BME280;36247;51.952;6.146;2023-02-23T11:00:59;101425.19;;;8.35;100.00
29909;BME280;36247;51.952;6.146;2023-02-23T11:03:33;101427.41;;;8.48;100.00
29909;BME280;36247;51.952;6.146;2023-02-23T11:06:00;101424.59;;;8.43;100.00
29909;BME280;36247;51.952;6.146;2023-02-23T11:08:30;101424.22;;;8.33;100.00
29909;BME280;36247;51.952;6.146;2023-02-23T11:11:16;101427.03;;;8.39;100.00
29909;BME280;36247;51.952;6.146;2023-02-23T11:14:15;101425.22;;;8.36;100.00
29909;BME280;36247;51.952;6.146;2023-02-23T11:16:41;101434.63;;;8.28;100.00
29909;BME280;36247;51.952;6.146;2023-02-23T11:19:20;101433.84;;;8.30;100.00
29909;BME280;36247;51.952;6.146;2023-02-23T11:21:51;101425.78;;;8.26;100.00
29909;BME280;36247;51.952;6.146;2023-02-23T11:24:26;101428.66;;;8.34;100.00
29909;BME280;36247;51.952;6.146;2023-02-23T11:26:56;101429.41;;;8.29;100.00
29909;BME280;36247;51.952;6.146;2023-02-23T11:29:35;101418.78;;;8.28;100.00
29909;BME280;36247;51.952;6.146;2023-02-23T11:32:07;101422.63;;;8.38;100.00
29909;BME280;36247;51.952;6.146;2023-02-23T11:34:36;101415.22;;;8.26;100.00
29909;BME280;36247;51.952;6.146;2023-02-23T11:37:28;101414.81;;;8.41;100.00
29909;BME280;36247;51.952;6.146;2023-02-23T11:40:00;101413.91;;;8.40;100.00
29909;BME280;36247;51.952;6.146;2023-02-23T11:42:27;101412.81;;;8.34;100.00
29909;BME280;36247;51.952;6.146;2023-02-23T11:45:29;101408.91;;;8.22;100.00
29909;BME280;36247;51.952;6.146;2023-02-23T11:47:58;101414.00;;;8.16;100.00
29909;BME280;36247;51.952;6.146;2023-02-23T11:50:27;101413.91;;;8.13;100.00
29909;BME280;36247;51.952;6.146;2023-02-23T11:52:58;101411.00;;;8.33;100.00
29909;BME280;36247;51.952;6.146;2023-02-23T11:55:25;101413.28;;;8.20;100.00
29909;BME280;36247;51.952;6.146;2023-02-23T11:58:06;101421.19;;;8.20;100.00
29909;BME280;36247;51.952;6.146;2023-02-23T12:00:32;101419.19;;;8.13;100.00
29909;BME280;36247;51.952;6.146;2023-02-23T12:03:00;101416.00;;;8.23;100.00
29909;BME280;36247;51.952;6.146;2023-02-23T12:05:29;101411.22;;;8.39;100.00
29909;BME280;36247;51.952;6.146;2023-02-23T12:08:12;101412.69;;;8.29;100.00
29909;BME280;36247;51.952;6.146;2023-02-23T12:10:49;101423.09;;;8.24;100.00
29909;BME280;36247;51.952;6.146;2023-02-23T12:13:37;101418.00;;;8.30;100.00
29909;BME280;36247;51.952;6.146;2023-02-23T12:18:59;101408.38;;;8.58;100.00
29909;BME280;36247;51.952;6.146;2023-02-23T12:22:06;101409.75;;;8.47;100.00
29909;BME280;36247;51.952;6.146;2023-02-23T12:24:42;101410.31;;;8.38;100.00
29909;BME280;36247;51.952;6.146;2023-02-23T12:30:07;101412.53;;;8.24;100.00
29909;BME280;36247;51.952;6.146;2023-02-23T12:35:24;101421.19;;;8.20;100.00
29909;BME280;36247;51.952;6.146;2023-02-23T12:40:38;101415.75;;;8.16;100.00
29909;BME280;36247;51.952;6.146;2023-02-23T12:43:25;101422.75;;;8.14;100.00
29909;BME280;36247;51.952;6.146;2023-02-23T12:49:14;101420.59;;;8.29;100.00
29909;BME280;36247;51.952;6.146;2023-02-23T12:51:57;101421.56;;;8.33;100.00
29909;BME280;36247;51.952;6.146;2023-02-23T12:54:24;101421.22;;;8.22;100.00
29909;BME280;36247;51.952;6.146;2023-02-23T12:59:57;101424.34;;;8.37;100.00
29909;BME280;36247;51.952;6.146;2023-02-23T13:14:17;101417.81;;;8.24;100.00
29909;BME280;36247;51.952;6.146;2023-02-23T13:16:50;101413.69;;;8.34;100.00
29909;BME280;36247;51.952;6.146;2023-02-23T13:24:22;101410.63;;;8.20;100.00
29909;BME280;36247;51.952;6.146;2023-02-23T13:27:00;101416.34;;;8.34;100.00
29909;BME280;36247;51.952;6.146;2023-02-23T13:29:41;101411.13;;;8.36;100.00
29909;BME280;36247;51.952;6.146;2023-02-23T13:32:16;101408.09;;;8.23;100.00
29909;BME280;36247;51.952;6.146;2023-02-23T13:34:52;101407.94;;;8.19;100.00
29909;BME280;36247;51.952;6.146;2023-02-23T13:37:25;101408.81;;;8.19;100.00
29909;BME280;36247;51.952;6.146;2023-02-23T13:39:56;101416.09;;;8.26;100.00
29909;BME280;36247;51.952;6.146;2023-02-23T13:43:00;101405.88;;;8.10;100.00
29909;BME280;36247;51.952;6.146;2023-02-23T13:51:56;101415.75;;;7.88;100.00
29909;BME280;36247;51.952;6.146;2023-02-23T13:54:29;101417.72;;;7.95;100.00
29909;BME280;36247;51.952;6.146;2023-02-23T13:56:58;101409.53;;;7.88;100.00
29909;BME280;36247;51.952;6.146;2023-02-23T13:59:28;101420.09;;;7.88;100.00
29909;BME280;36247;51.952;6.146;2023-02-23T14:01:55;101418.78;;;8.01;100.00
29909;BME280;36247;51.952;6.146;2023-02-23T14:04:23;101420.09;;;7.88;100.00
29909;BME280;36247;51.952;6.146;2023-02-23T14:09:33;101414.97;;;7.92;100.00
29909;BME280;36247;51.952;6.146;2023-02-23T14:12:12;101417.72;;;7.95;100.00
29909;BME280;36247;51.952;6.146;2023-02-23T14:14:45;101425.75;;;7.99;100.00
29909;BME280;36247;51.952;6.146;2023-02-23T14:19:41;101419.63;;;8.00;100.00
29909;BME280;36247;51.952;6.146;2023-02-23T14:22:10;101416.56;;;7.87;100.00
29909;BME280;36247;51.952;6.146;2023-02-23T14:24:37;101415.78;;;7.90;100.00
29909;BME280;36247;51.952;6.146;2023-02-23T14:29:42;101424.44;;;7.86;100.00
29909;BME280;36247;51.952;6.146;2023-02-23T14:34:58;101423.59;;;7.87;100.00
29909;BME280;36247;51.952;6.146;2023-02-23T14:37:39;101419.25;;;7.89;100.00
29909;BME280;36247;51.952;6.146;2023-02-23T14:40:13;101427.47;;;7.98;100.00